San Miguel de Allende, Mexico

5:20 AM CDT on August 29, 2015 (GMT -0500)
Atascadero - La Palmita | | Change Station
CLOSE
Current Station
Personal Weather Station
Location: San Miguel De Allende, Guanajuato
Elevation: 6650 ft
Nearby Weather Stations

Elev 6650 ft 20.91 °N, 100.73 °W | Updated 8 minutes ago

Clear
Clear
52.6 °F
Feels Like 52.6 °F
N
0.0
Wind Variable Wind from ENE
Gusts 0.0 mph

Today
High -- | Low -- °F
--% Chance of Precip.
Yesterday
High -- | Low -- °F
Precip. -- in
7:25 AM 8:01 PM
Full, 100% visible
Pressure 30.31 in
Visibility 8.0 miles
Clouds Clear
Dew Point 50 °F
Humidity 90%
Rainfall 0.00 in
Snow Depth Not available.
UV 0 out of 12
Pollen Not available.
Air Quality Not available.
Flu Activity Not available.
METAR MMQT 290945Z 06006KT 8SM SKC 14/12 A3031
Pressure 30.31 in
Visibility 8.0 miles
Clouds Clear
Dew Point 50 °F
Humidity 90%
Rainfall 0.00 in
Snow Depth Not available.
UV 0 out of 12
Pollen Not available.
Air Quality Not available.
Flu Activity Not available.
METAR MMQT 290945Z 06006KT 8SM SKC 14/12 A3031

10-Day Weather Forecast

×

Almanac

Astronomy

Aug. 29, 2015 Rise Set
Actual Time
Civil Twilight
Nautical Twilight
Astronomical Twilight
Moon
Length of Visible Light
Length of Day
Tomorrow will be .
, % of the Moon is Illuminated

Today's Extremes

Country Highs Country Lows

Community

WunderPhotos

Upload Photos

1,850,633 photos uploaded!

WunderBlogs® & News

Nearby

Air Quality

  Air Quality AQ Index Pollutant
Not available.

Snow Depth

Station Depth Elevation

Earthquake Activity

City Distance Mag. Time & Date
Minimum magnitude displayed is 2.5.

Coastal Water Temperatures

Place Temperature

Stations

Nearby Weather Stations

Station Location Temp. Windchill Dew Point Humidity Wind Precip. Elev Updated Type